Owosso, MI

11:51 PM EST on February 24, 2017 (GMT -0500)
Owosso | | Change Station

Elev 735 ft 42.99 °N, 84.14 °W | Updated 16 minutes ago

Overcast
Overcast
46 °F
Feels Like 38 °F
N
18
Wind Variable Wind from West
Gusts 30 mph

Today
High -- | Low -- °F
--% Chance of Precip.
Yesterday
High -- | Low -- °F
Precip. -- in
Pressure 29.45 in
Visibility 10.0 miles
Clouds Scattered Clouds 1100 ft
Overcast 1700 ft
Windchill 38 °F
Dew Point 41 °F
Humidity 83%
Rainfall 0.00 in
Snow Depth Not available.
7:20 AM 6:19 PM
Waning Crescent, 2% visible
METAR KRNP 250435Z AUTO 26016G26KT 10SM SCT011 OVC017 08/05 A2945 RMK AO2 T00770050
Pressure 29.45 in
Visibility 10.0 miles
Clouds Scattered Clouds 1100 ft
Overcast 1700 ft
Windchill 38 °F
Dew Point 41 °F
Humidity 83%
Rainfall 0.00 in
Snow Depth Not available.
7:20 AM 6:19 PM
Waning Crescent, 2% visible
METAR KRNP 250435Z AUTO 26016G26KT 10SM SCT011 OVC017 08/05 A2945 RMK AO2 T00770050

Get Your Daily Forecast Email!

Thanks for signing up!

Be on the lookout for a verification email in your inbox.

You'll start receiving the daily forecast at 8 AM.

×

10-Day Weather Forecast

Almanac

Astronomy

Feb. 24, 2017 Rise Set
Actual Time
Civil Twilight
Nautical Twilight
Astronomical Twilight
Moon
Length of Visible Light
Length of Day
Tomorrow will be .
, % of the Moon is Illuminated

Today's Extremes

State Highs State Lows

Community

WunderPhotos

Upload Photos

1,962,540 photos uploaded!

WunderBlog® & News

Nearby

Air Quality

  Air Quality AQ Index Pollutant
Not available.

Snow Depth

Station Depth Elevation

Earthquake Activity

City Distance Mag. Time & Date
Minimum magnitude displayed is 2.5.

Coastal Water Temperatures

Place Temperature

Stations

Nearby Weather Stations

Station Location Temp. Windchill Dew Point Humidity Wind Precip. Elev Updated Type
                   

Watches & Warnings

There are currently no watches in effect.